Terminal Aerodrome Forecast
Issued by NWS St Louis, MO

Home | Current Version | Previous Version | Text Only | Print | Product List | Glossary On
Versions: 1 2 3 4 5 6 7 8 9 10 11 12 13 14 15 16 17 18 19
000
FTUS43 KLSX 290700 AAB
TAFCOU
TAF AMD
KCOU 290723Z 2907/3006 15011KT P6SM VCSH SCT006 BKN012
      TEMPO 2907/2910 BKN006
     FM291200 16007KT P6SM SCT015 BKN100
     FM291800 20009KT P6SM VCTS BKN035CB
     FM300100 20006KT P6SM BKN040=

USA.gov is the U.S. government's official web portal to all federal, state and local government web resources and services.